sensor_id;sensor_type;location;lat;lon;timestamp;temperature;humidity
18712;DHT22;9485;49.386;8.674;2023-07-31T00:03:08;22.70;80.70
18712;DHT22;9485;49.386;8.674;2023-07-31T00:08:30;22.70;81.10
18712;DHT22;9485;49.386;8.674;2023-07-31T00:13:53;22.70;80.90
18712;DHT22;9485;49.386;8.674;2023-07-31T00:19:14;22.70;80.10
18712;DHT22;9485;49.386;8.674;2023-07-31T00:24:34;22.70;80.80
18712;DHT22;9485;49.386;8.674;2023-07-31T00:29:56;22.70;80.80
18712;DHT22;9485;49.386;8.674;2023-07-31T00:35:18;22.70;80.50
18712;DHT22;9485;49.386;8.674;2023-07-31T00:40:39;22.70;80.90
18712;DHT22;9485;49.386;8.674;2023-07-31T00:46:01;22.60;81.00
18712;DHT22;9485;49.386;8.674;2023-07-31T00:51:22;22.60;80.50
18712;DHT22;9485;49.386;8.674;2023-07-31T00:56:45;22.60;80.70
18712;DHT22;9485;49.386;8.674;2023-07-31T01:02:09;22.60;80.40
18712;DHT22;9485;49.386;8.674;2023-07-31T01:07:35;22.50;80.20
18712;DHT22;9485;49.386;8.674;2023-07-31T01:13:03;22.50;79.90
18712;DHT22;9485;49.386;8.674;2023-07-31T01:18:27;22.50;80.40
18712;DHT22;9485;49.386;8.674;2023-07-31T01:24:09;22.50;80.30
18712;DHT22;9485;49.386;8.674;2023-07-31T01:29:48;22.50;77.90
18712;DHT22;9485;49.386;8.674;2023-07-31T01:35:15;22.50;79.60
18712;DHT22;9485;49.386;8.674;2023-07-31T01:40:36;22.50;81.00
18712;DHT22;9485;49.386;8.674;2023-07-31T01:45:57;22.50;80.80
18712;DHT22;9485;49.386;8.674;2023-07-31T01:51:18;22.50;80.20
18712;DHT22;9485;49.386;8.674;2023-07-31T01:56:40;22.50;80.80
18712;DHT22;9485;49.386;8.674;2023-07-31T02:02:02;22.50;81.10
18712;DHT22;9485;49.386;8.674;2023-07-31T02:07:23;22.50;80.30
18712;DHT22;9485;49.386;8.674;2023-07-31T02:12:44;22.50;80.80
18712;DHT22;9485;49.386;8.674;2023-07-31T02:18:05;22.50;80.80
18712;DHT22;9485;49.386;8.674;2023-07-31T02:23:26;22.50;80.20
18712;DHT22;9485;49.386;8.674;2023-07-31T02:28:46;22.50;80.60
18712;DHT22;9485;49.386;8.674;2023-07-31T02:34:10;22.50;80.50
18712;DHT22;9485;49.386;8.674;2023-07-31T02:39:31;22.50;79.90
18712;DHT22;9485;49.386;8.674;2023-07-31T02:44:53;22.50;80.30
18712;DHT22;9485;49.386;8.674;2023-07-31T02:50:16;22.50;80.40
18712;DHT22;9485;49.386;8.674;2023-07-31T02:55:37;22.50;80.00
18712;DHT22;9485;49.386;8.674;2023-07-31T03:00:58;22.40;80.50
18712;DHT22;9485;49.386;8.674;2023-07-31T03:06:20;22.50;80.40
18712;DHT22;9485;49.386;8.674;2023-07-31T03:11:41;22.50;80.00
18712;DHT22;9485;49.386;8.674;2023-07-31T03:17:02;22.50;80.60
18712;DHT22;9485;49.386;8.674;2023-07-31T03:22:25;22.40;80.50
18712;DHT22;9485;49.386;8.674;2023-07-31T03:27:46;22.40;79.90
18712;DHT22;9485;49.386;8.674;2023-07-31T03:33:09;22.40;80.30
18712;DHT22;9485;49.386;8.674;2023-07-31T03:38:31;22.40;80.20
18712;DHT22;9485;49.386;8.674;2023-07-31T03:43:52;22.30;79.80
18712;DHT22;9485;49.386;8.674;2023-07-31T03:49:15;22.30;80.50
18712;DHT22;9485;49.386;8.674;2023-07-31T03:54:38;22.20;80.40
18712;DHT22;9485;49.386;8.674;2023-07-31T03:59:59;22.20;80.00
18712;DHT22;9485;49.386;8.674;2023-07-31T04:05:20;22.10;80.50
18712;DHT22;9485;49.386;8.674;2023-07-31T04:10:42;22.10;80.70
18712;DHT22;9485;49.386;8.674;2023-07-31T04:16:04;22.10;80.50
18712;DHT22;9485;49.386;8.674;2023-07-31T04:21:25;22.10;80.90
18712;DHT22;9485;49.386;8.674;2023-07-31T04:26:46;22.10;80.70
18712;DHT22;9485;49.386;8.674;2023-07-31T04:32:07;22.10;80.30
18712;DHT22;9485;49.386;8.674;2023-07-31T04:37:28;22.00;80.70
18712;DHT22;9485;49.386;8.674;2023-07-31T04:42:49;22.00;80.60
18712;DHT22;9485;49.386;8.674;2023-07-31T04:48:10;22.00;80.20
18712;DHT22;9485;49.386;8.674;2023-07-31T04:53:31;22.00;80.70
18712;DHT22;9485;49.386;8.674;2023-07-31T04:58:54;22.00;80.60
18712;DHT22;9485;49.386;8.674;2023-07-31T05:04:15;22.00;80.20
18712;DHT22;9485;49.386;8.674;2023-07-31T05:09:36;22.00;80.80
18712;DHT22;9485;49.386;8.674;2023-07-31T05:14:59;22.00;80.80
18712;DHT22;9485;49.386;8.674;2023-07-31T05:20:20;22.00;80.60
18712;DHT22;9485;49.386;8.674;2023-07-31T05:25:41;22.10;81.00
18712;DHT22;9485;49.386;8.674;2023-07-31T05:31:04;22.10;81.20
18712;DHT22;9485;49.386;8.674;2023-07-31T05:36:24;22.20;80.40
18712;DHT22;9485;49.386;8.674;2023-07-31T05:41:45;22.20;80.90
18712;DHT22;9485;49.386;8.674;2023-07-31T05:47:07;22.20;80.80
18712;DHT22;9485;49.386;8.674;2023-07-31T05:52:27;22.20;80.30
18712;DHT22;9485;49.386;8.674;2023-07-31T05:57:49;22.30;80.80
18712;DHT22;9485;49.386;8.674;2023-07-31T06:03:11;22.30;80.80
18712;DHT22;9485;49.386;8.674;2023-07-31T06:08:31;22.30;80.40
18712;DHT22;9485;49.386;8.674;2023-07-31T06:13:52;22.30;80.70
18712;DHT22;9485;49.386;8.674;2023-07-31T06:19:14;22.30;80.80
18712;DHT22;9485;49.386;8.674;2023-07-31T06:24:36;22.30;80.40
18712;DHT22;9485;49.386;8.674;2023-07-31T06:29:56;22.40;81.10
18712;DHT22;9485;49.386;8.674;2023-07-31T06:35:19;22.40;80.90
18712;DHT22;9485;49.386;8.674;2023-07-31T06:40:40;22.40;80.30
18712;DHT22;9485;49.386;8.674;2023-07-31T06:46:04;22.60;80.90
18712;DHT22;9485;49.386;8.674;2023-07-31T06:51:27;22.50;79.80
18712;DHT22;9485;49.386;8.674;2023-07-31T06:56:50;22.50;80.40
18712;DHT22;9485;49.386;8.674;2023-07-31T07:02:11;22.60;81.00
18712;DHT22;9485;49.386;8.674;2023-07-31T07:07:33;22.70;81.30
18712;DHT22;9485;49.386;8.674;2023-07-31T07:12:54;22.80;80.70
18712;DHT22;9485;49.386;8.674;2023-07-31T07:18:15;22.80;80.80
18712;DHT22;9485;49.386;8.674;2023-07-31T07:23:38;22.90;80.90
18712;DHT22;9485;49.386;8.674;2023-07-31T07:28:59;23.00;80.50
18712;DHT22;9485;49.386;8.674;2023-07-31T07:34:22;23.00;80.90
18712;DHT22;9485;49.386;8.674;2023-07-31T07:39:44;23.10;80.20
18712;DHT22;9485;49.386;8.674;2023-07-31T07:45:07;23.20;80.20
18712;DHT22;9485;49.386;8.674;2023-07-31T07:50:28;23.30;80.80
18712;DHT22;9485;49.386;8.674;2023-07-31T07:55:50;23.40;80.70
18712;DHT22;9485;49.386;8.674;2023-07-31T08:01:11;23.50;80.00
18712;DHT22;9485;49.386;8.674;2023-07-31T08:06:31;23.60;80.40
18712;DHT22;9485;49.386;8.674;2023-07-31T08:11:53;23.60;80.10
18712;DHT22;9485;49.386;8.674;2023-07-31T08:17:16;23.70;80.00
18712;DHT22;9485;49.386;8.674;2023-07-31T08:22:37;23.80;80.60
18712;DHT22;9485;49.386;8.674;2023-07-31T08:27:59;23.90;80.50
18712;DHT22;9485;49.386;8.674;2023-07-31T08:33:20;24.10;80.30
18712;DHT22;9485;49.386;8.674;2023-07-31T08:38:41;24.30;80.80
18712;DHT22;9485;49.386;8.674;2023-07-31T08:44:03;24.50;81.60
18712;DHT22;9485;49.386;8.674;2023-07-31T08:49:24;24.90;80.70
18712;DHT22;9485;49.386;8.674;2023-07-31T08:54:48;25.10;80.30
18712;DHT22;9485;49.386;8.674;2023-07-31T09:00:11;25.40;79.80
18712;DHT22;9485;49.386;8.674;2023-07-31T09:05:36;25.50;77.90
18712;DHT22;9485;49.386;8.674;2023-07-31T09:10:59;25.60;78.20
18712;DHT22;9485;49.386;8.674;2023-07-31T09:16:28;25.70;77.30
18712;DHT22;9485;49.386;8.674;2023-07-31T09:21:51;25.60;74.40
18712;DHT22;9485;49.386;8.674;2023-07-31T09:27:12;25.50;77.50
18712;DHT22;9485;49.386;8.674;2023-07-31T09:32:34;25.70;78.60
18712;DHT22;9485;49.386;8.674;2023-07-31T09:37:57;25.90;77.90
18712;DHT22;9485;49.386;8.674;2023-07-31T09:43:22;26.20;77.70
18712;DHT22;9485;49.386;8.674;2023-07-31T09:48:44;26.40;78.50
18712;DHT22;9485;49.386;8.674;2023-07-31T09:54:11;26.70;76.90
18712;DHT22;9485;49.386;8.674;2023-07-31T09:59:33;26.90;74.40
18712;DHT22;9485;49.386;8.674;2023-07-31T10:04:57;26.90;76.30
18712;DHT22;9485;49.386;8.674;2023-07-31T10:10:23;26.80;74.40
18712;DHT22;9485;49.386;8.674;2023-07-31T10:15:45;26.90;75.70
18712;DHT22;9485;49.386;8.674;2023-07-31T10:21:10;26.80;75.60
18712;DHT22;9485;49.386;8.674;2023-07-31T10:26:33;26.80;74.90
18712;DHT22;9485;49.386;8.674;2023-07-31T10:31:58;26.90;76.10
18712;DHT22;9485;49.386;8.674;2023-07-31T10:37:23;26.90;74.80
18712;DHT22;9485;49.386;8.674;2023-07-31T10:42:47;26.90;74.00
18712;DHT22;9485;49.386;8.674;2023-07-31T10:48:13;26.90;75.10
18712;DHT22;9485;49.386;8.674;2023-07-31T10:53:36;26.90;73.50
18712;DHT22;9485;49.386;8.674;2023-07-31T10:59:01;27.00;75.40
18712;DHT22;9485;49.386;8.674;2023-07-31T11:04:24;27.20;75.50
18712;DHT22;9485;49.386;8.674;2023-07-31T11:09:47;27.60;76.00
18712;DHT22;9485;49.386;8.674;2023-07-31T11:15:09;27.80;73.70
18712;DHT22;9485;49.386;8.674;2023-07-31T11:20:31;27.90;73.70
18712;DHT22;9485;49.386;8.674;2023-07-31T11:25:59;27.80;73.00
18712;DHT22;9485;49.386;8.674;2023-07-31T11:31:22;27.80;71.10
18712;DHT22;9485;49.386;8.674;2023-07-31T11:36:53;27.90;74.50
18712;DHT22;9485;49.386;8.674;2023-07-31T11:42:17;28.10;71.00
18712;DHT22;9485;49.386;8.674;2023-07-31T11:47:38;28.30;72.30
18712;DHT22;9485;49.386;8.674;2023-07-31T11:53:01;28.30;73.00
18712;DHT22;9485;49.386;8.674;2023-07-31T11:58:29;28.30;71.60
18712;DHT22;9485;49.386;8.674;2023-07-31T12:03:52;28.30;71.60
18712;DHT22;9485;49.386;8.674;2023-07-31T12:09:14;28.20;72.70
18712;DHT22;9485;49.386;8.674;2023-07-31T12:14:41;28.30;72.60
18712;DHT22;9485;49.386;8.674;2023-07-31T12:20:04;28.30;70.20
18712;DHT22;9485;49.386;8.674;2023-07-31T12:25:33;28.30;71.10
18712;DHT22;9485;49.386;8.674;2023-07-31T12:30:58;28.20;69.40
18712;DHT22;9485;49.386;8.674;2023-07-31T12:36:22;28.10;70.50
18712;DHT22;9485;49.386;8.674;2023-07-31T12:41:44;28.10;72.30
18712;DHT22;9485;49.386;8.674;2023-07-31T12:47:05;28.20;73.20
18712;DHT22;9485;49.386;8.674;2023-07-31T12:52:26;28.30;71.80
18712;DHT22;9485;49.386;8.674;2023-07-31T12:57:47;28.40;73.30
18712;DHT22;9485;49.386;8.674;2023-07-31T13:03:09;28.60;72.60
18712;DHT22;9485;49.386;8.674;2023-07-31T13:08:30;28.60;71.30
18712;DHT22;9485;49.386;8.674;2023-07-31T13:13:50;28.60;71.60
18712;DHT22;9485;49.386;8.674;2023-07-31T13:19:13;28.60;71.80
18712;DHT22;9485;49.386;8.674;2023-07-31T13:24:34;28.50;71.00
18712;DHT22;9485;49.386;8.674;2023-07-31T13:29:54;28.50;71.30
18712;DHT22;9485;49.386;8.674;2023-07-31T13:35:16;28.30;71.10
18712;DHT22;9485;49.386;8.674;2023-07-31T13:40:37;28.40;71.10
18712;DHT22;9485;49.386;8.674;2023-07-31T13:45:57;28.30;72.40
18712;DHT22;9485;49.386;8.674;2023-07-31T13:51:24;28.50;72.60
18712;DHT22;9485;49.386;8.674;2023-07-31T13:56:46;28.80;71.90
18712;DHT22;9485;49.386;8.674;2023-07-31T14:02:07;29.10;72.40
18712;DHT22;9485;49.386;8.674;2023-07-31T14:07:29;29.30;72.00
18712;DHT22;9485;49.386;8.674;2023-07-31T14:12:51;29.40;70.40
18712;DHT22;9485;49.386;8.674;2023-07-31T14:18:12;29.40;70.20
18712;DHT22;9485;49.386;8.674;2023-07-31T14:23:34;29.30;70.20
18712;DHT22;9485;49.386;8.674;2023-07-31T14:28:54;29.20;69.50
18712;DHT22;9485;49.386;8.674;2023-07-31T14:34:16;29.00;70.10
18712;DHT22;9485;49.386;8.674;2023-07-31T14:39:38;28.90;69.80
18712;DHT22;9485;49.386;8.674;2023-07-31T14:44:59;28.70;69.00
18712;DHT22;9485;49.386;8.674;2023-07-31T14:50:20;28.50;69.90
18712;DHT22;9485;49.386;8.674;2023-07-31T14:55:43;28.40;69.90
18712;DHT22;9485;49.386;8.674;2023-07-31T15:01:03;28.30;69.40
18712;DHT22;9485;49.386;8.674;2023-07-31T15:06:24;28.20;70.30
18712;DHT22;9485;49.386;8.674;2023-07-31T15:11:46;28.20;71.00
18712;DHT22;9485;49.386;8.674;2023-07-31T15:17:06;28.30;70.30
18712;DHT22;9485;49.386;8.674;2023-07-31T15:22:27;28.40;71.40
18712;DHT22;9485;49.386;8.674;2023-07-31T15:27:51;28.40;71.30
18712;DHT22;9485;49.386;8.674;2023-07-31T15:33:11;28.50;70.70
18712;DHT22;9485;49.386;8.674;2023-07-31T15:38:33;28.60;71.00
18712;DHT22;9485;49.386;8.674;2023-07-31T15:43:55;28.70;70.70
18712;DHT22;9485;49.386;8.674;2023-07-31T15:49:16;28.60;69.80
18712;DHT22;9485;49.386;8.674;2023-07-31T15:54:36;28.60;70.20
18712;DHT22;9485;49.386;8.674;2023-07-31T15:59:58;28.50;70.60
18712;DHT22;9485;49.386;8.674;2023-07-31T16:05:19;28.50;70.20
18712;DHT22;9485;49.386;8.674;2023-07-31T16:10:39;28.40;70.60
18712;DHT22;9485;49.386;8.674;2023-07-31T16:16:02;28.30;71.20
18712;DHT22;9485;49.386;8.674;2023-07-31T16:21:24;28.30;70.40
18712;DHT22;9485;49.386;8.674;2023-07-31T16:26:45;28.20;71.20
18712;DHT22;9485;49.386;8.674;2023-07-31T16:32:07;28.10;70.10
18712;DHT22;9485;49.386;8.674;2023-07-31T16:37:28;27.70;69.10
18712;DHT22;9485;49.386;8.674;2023-07-31T16:42:49;27.50;70.20
18712;DHT22;9485;49.386;8.674;2023-07-31T16:48:10;27.30;70.70
18712;DHT22;9485;49.386;8.674;2023-07-31T16:53:32;27.10;71.20
18712;DHT22;9485;49.386;8.674;2023-07-31T16:58:54;26.90;72.40
18712;DHT22;9485;49.386;8.674;2023-07-31T17:04:17;26.70;71.90
18712;DHT22;9485;49.386;8.674;2023-07-31T17:09:38;26.40;71.50
18712;DHT22;9485;49.386;8.674;2023-07-31T17:14:58;26.10;72.20
18712;DHT22;9485;49.386;8.674;2023-07-31T17:20:20;25.80;73.20
18712;DHT22;9485;49.386;8.674;2023-07-31T17:25:41;25.50;74.20
18712;DHT22;9485;49.386;8.674;2023-07-31T17:31:03;25.20;74.40
18712;DHT22;9485;49.386;8.674;2023-07-31T17:36:25;25.00;74.70
18712;DHT22;9485;49.386;8.674;2023-07-31T17:41:46;24.70;75.20
18712;DHT22;9485;49.386;8.674;2023-07-31T17:47:06;24.40;75.60
18712;DHT22;9485;49.386;8.674;2023-07-31T17:52:28;24.10;76.40
18712;DHT22;9485;49.386;8.674;2023-07-31T17:57:50;23.90;77.00
18712;DHT22;9485;49.386;8.674;2023-07-31T18:03:10;23.60;78.40
18712;DHT22;9485;49.386;8.674;2023-07-31T18:08:33;23.40;79.90
18712;DHT22;9485;49.386;8.674;2023-07-31T18:13:53;23.20;81.50
18712;DHT22;9485;49.386;8.674;2023-07-31T18:19:14;23.00;82.90
18712;DHT22;9485;49.386;8.674;2023-07-31T18:24:36;22.80;84.00
18712;DHT22;9485;49.386;8.674;2023-07-31T18:29:58;22.70;84.90
18712;DHT22;9485;49.386;8.674;2023-07-31T18:35:18;22.60;85.90
18712;DHT22;9485;49.386;8.674;2023-07-31T18:40:41;22.50;86.80
18712;DHT22;9485;49.386;8.674;2023-07-31T18:46:01;22.50;87.50
18712;DHT22;9485;49.386;8.674;2023-07-31T18:51:23;22.50;87.70
18712;DHT22;9485;49.386;8.674;2023-07-31T18:56:46;22.50;87.90
18712;DHT22;9485;49.386;8.674;2023-07-31T19:02:06;22.40;88.80
18712;DHT22;9485;49.386;8.674;2023-07-31T19:07:27;22.30;89.30
18712;DHT22;9485;49.386;8.674;2023-07-31T19:12:49;22.30;89.80
18712;DHT22;9485;49.386;8.674;2023-07-31T19:18:09;22.20;89.60
18712;DHT22;9485;49.386;8.674;2023-07-31T19:23:30;22.20;90.00
18712;DHT22;9485;49.386;8.674;2023-07-31T19:28:52;22.10;90.20
18712;DHT22;9485;49.386;8.674;2023-07-31T19:34:12;22.10;90.30
18712;DHT22;9485;49.386;8.674;2023-07-31T19:39:33;22.00;90.50
18712;DHT22;9485;49.386;8.674;2023-07-31T19:44:55;22.00;90.60
18712;DHT22;9485;49.386;8.674;2023-07-31T19:50:16;22.00;90.60
18712;DHT22;9485;49.386;8.674;2023-07-31T19:55:36;22.00;90.60
18712;DHT22;9485;49.386;8.674;2023-07-31T20:00:58;22.00;90.60
18712;DHT22;9485;49.386;8.674;2023-07-31T20:06:19;22.00;90.60
18712;DHT22;9485;49.386;8.674;2023-07-31T20:11:39;21.90;90.60
18712;DHT22;9485;49.386;8.674;2023-07-31T20:17:01;21.90;90.70
18712;DHT22;9485;49.386;8.674;2023-07-31T20:22:22;21.90;90.70
18712;DHT22;9485;49.386;8.674;2023-07-31T20:27:42;21.90;90.70
18712;DHT22;9485;49.386;8.674;2023-07-31T20:33:06;21.90;90.80
18712;DHT22;9485;49.386;8.674;2023-07-31T20:38:28;21.80;91.00
18712;DHT22;9485;49.386;8.674;2023-07-31T20:43:49;21.80;91.00
18712;DHT22;9485;49.386;8.674;2023-07-31T20:49:11;21.80;91.20
18712;DHT22;9485;49.386;8.674;2023-07-31T20:54:32;21.70;91.30
18712;DHT22;9485;49.386;8.674;2023-07-31T20:59:52;21.70;91.30
18712;DHT22;9485;49.386;8.674;2023-07-31T21:05:15;21.70;91.40
18712;DHT22;9485;49.386;8.674;2023-07-31T21:10:38;21.70;91.40
18712;DHT22;9485;49.386;8.674;2023-07-31T21:15:58;21.70;91.40
18712;DHT22;9485;49.386;8.674;2023-07-31T21:21:22;21.60;91.40
18712;DHT22;9485;49.386;8.674;2023-07-31T21:26:43;21.60;91.50
18712;DHT22;9485;49.386;8.674;2023-07-31T21:32:04;21.60;91.60
18712;DHT22;9485;49.386;8.674;2023-07-31T21:37:27;21.70;91.60
18712;DHT22;9485;49.386;8.674;2023-07-31T21:42:48;21.60;91.60
18712;DHT22;9485;49.386;8.674;2023-07-31T21:48:09;21.60;91.70
18712;DHT22;9485;49.386;8.674;2023-07-31T21:53:31;21.60;91.70
18712;DHT22;9485;49.386;8.674;2023-07-31T21:58:52;21.60;91.60
18712;DHT22;9485;49.386;8.674;2023-07-31T22:04:13;21.60;91.50
18712;DHT22;9485;49.386;8.674;2023-07-31T22:09:35;21.60;91.40
18712;DHT22;9485;49.386;8.674;2023-07-31T22:14:56;21.60;91.40
18712;DHT22;9485;49.386;8.674;2023-07-31T22:20:18;21.50;91.40
18712;DHT22;9485;49.386;8.674;2023-07-31T22:25:40;21.50;91.50
18712;DHT22;9485;49.386;8.674;2023-07-31T22:31:00;21.50;91.60
18712;DHT22;9485;49.386;8.674;2023-07-31T22:36:21;21.50;91.90
18712;DHT22;9485;49.386;8.674;2023-07-31T22:41:43;21.50;91.60
18712;DHT22;9485;49.386;8.674;2023-07-31T22:47:05;21.40;91.60
18712;DHT22;9485;49.386;8.674;2023-07-31T22:52:27;21.40;91.70
18712;DHT22;9485;49.386;8.674;2023-07-31T22:57:50;21.40;91.70
18712;DHT22;9485;49.386;8.674;2023-07-31T23:03:10;21.40;91.70
18712;DHT22;9485;49.386;8.674;2023-07-31T23:08:31;21.40;91.80
18712;DHT22;9485;49.386;8.674;2023-07-31T23:13:53;21.40;91.80
18712;DHT22;9485;49.386;8.674;2023-07-31T23:19:13;21.30;91.80
18712;DHT22;9485;49.386;8.674;2023-07-31T23:24:34;21.30;91.90
18712;DHT22;9485;49.386;8.674;2023-07-31T23:29:56;21.30;91.90
18712;DHT22;9485;49.386;8.674;2023-07-31T23:35:16;21.20;92.00
18712;DHT22;9485;49.386;8.674;2023-07-31T23:40:37;21.20;92.00
18712;DHT22;9485;49.386;8.674;2023-07-31T23:45:59;21.20;92.10
18712;DHT22;9485;49.386;8.674;2023-07-31T23:51:20;21.10;92.20
18712;DHT22;9485;49.386;8.674;2023-07-31T23:56:41;21.10;92.30
